sensor_id;sensor_type;location;lat;lon;timestamp;temperature;humidity
23291;DHT22;11814;44.686;10.842;2024-02-14T00:00:02;7.70;99.90
23291;DHT22;11814;44.686;10.842;2024-02-14T00:02:28;7.70;99.90
23291;DHT22;11814;44.686;10.842;2024-02-14T00:04:54;7.60;99.90
23291;DHT22;11814;44.686;10.842;2024-02-14T00:07:20;7.60;99.90
23291;DHT22;11814;44.686;10.842;2024-02-14T00:09:47;7.60;99.90
23291;DHT22;11814;44.686;10.842;2024-02-14T00:12:13;7.60;99.90
23291;DHT22;11814;44.686;10.842;2024-02-14T00:14:39;7.60;99.90
23291;DHT22;11814;44.686;10.842;2024-02-14T00:17:04;7.60;99.90
23291;DHT22;11814;44.686;10.842;2024-02-14T00:19:31;7.60;99.90
23291;DHT22;11814;44.686;10.842;2024-02-14T00:21:57;7.60;99.90
23291;DHT22;11814;44.686;10.842;2024-02-14T00:24:25;7.60;99.90
23291;DHT22;11814;44.686;10.842;2024-02-14T00:26:52;7.50;99.90
23291;DHT22;11814;44.686;10.842;2024-02-14T00:29:17;7.50;99.90
23291;DHT22;11814;44.686;10.842;2024-02-14T00:31:43;7.50;99.90
23291;DHT22;11814;44.686;10.842;2024-02-14T00:34:10;7.40;99.90
23291;DHT22;11814;44.686;10.842;2024-02-14T00:36:36;7.40;99.90
23291;DHT22;11814;44.686;10.842;2024-02-14T00:39:02;7.40;99.90
23291;DHT22;11814;44.686;10.842;2024-02-14T00:41:27;7.40;99.90
23291;DHT22;11814;44.686;10.842;2024-02-14T00:43:55;7.40;99.90
23291;DHT22;11814;44.686;10.842;2024-02-14T00:46:21;7.50;99.90
23291;DHT22;11814;44.686;10.842;2024-02-14T00:48:47;7.60;99.90
23291;DHT22;11814;44.686;10.842;2024-02-14T00:51:13;7.40;99.90
23291;DHT22;11814;44.686;10.842;2024-02-14T00:53:38;7.40;99.90
23291;DHT22;11814;44.686;10.842;2024-02-14T00:56:04;7.40;99.90
23291;DHT22;11814;44.686;10.842;2024-02-14T00:58:31;7.40;99.90
23291;DHT22;11814;44.686;10.842;2024-02-14T01:00:57;7.30;99.90
23291;DHT22;11814;44.686;10.842;2024-02-14T01:03:23;7.40;99.90
23291;DHT22;11814;44.686;10.842;2024-02-14T01:05:51;7.20;99.90
23291;DHT22;11814;44.686;10.842;2024-02-14T01:08:17;7.20;99.90
23291;DHT22;11814;44.686;10.842;2024-02-14T01:10:43;7.10;99.90
23291;DHT22;11814;44.686;10.842;2024-02-14T01:13:08;7.10;99.90
23291;DHT22;11814;44.686;10.842;2024-02-14T01:15:34;7.20;99.90
23291;DHT22;11814;44.686;10.842;2024-02-14T01:18:00;7.20;99.90
23291;DHT22;11814;44.686;10.842;2024-02-14T01:20:26;7.20;99.90
23291;DHT22;11814;44.686;10.842;2024-02-14T01:22:51;7.10;99.90
23291;DHT22;11814;44.686;10.842;2024-02-14T01:25:17;7.10;99.90
23291;DHT22;11814;44.686;10.842;2024-02-14T01:27:43;7.00;99.90
23291;DHT22;11814;44.686;10.842;2024-02-14T01:30:10;7.10;99.90
23291;DHT22;11814;44.686;10.842;2024-02-14T01:32:36;6.90;99.90
23291;DHT22;11814;44.686;10.842;2024-02-14T01:35:02;6.80;99.90
23291;DHT22;11814;44.686;10.842;2024-02-14T01:37:29;6.70;99.90
23291;DHT22;11814;44.686;10.842;2024-02-14T01:39:55;6.70;99.90
23291;DHT22;11814;44.686;10.842;2024-02-14T01:42:21;6.70;99.90
23291;DHT22;11814;44.686;10.842;2024-02-14T01:44:46;6.60;99.90
23291;DHT22;11814;44.686;10.842;2024-02-14T01:47:12;6.60;99.90
23291;DHT22;11814;44.686;10.842;2024-02-14T01:49:38;6.60;99.90
23291;DHT22;11814;44.686;10.842;2024-02-14T01:52:04;6.60;99.90
23291;DHT22;11814;44.686;10.842;2024-02-14T01:54:31;6.60;99.90
23291;DHT22;11814;44.686;10.842;2024-02-14T01:56:57;6.50;99.90
23291;DHT22;11814;44.686;10.842;2024-02-14T01:59:24;6.50;99.90
23291;DHT22;11814;44.686;10.842;2024-02-14T02:01:50;6.50;99.90
23291;DHT22;11814;44.686;10.842;2024-02-14T02:04:18;6.50;99.90
23291;DHT22;11814;44.686;10.842;2024-02-14T02:06:44;6.50;99.90
23291;DHT22;11814;44.686;10.842;2024-02-14T02:09:10;6.50;99.90
23291;DHT22;11814;44.686;10.842;2024-02-14T02:11:46;6.60;99.90
23291;DHT22;11814;44.686;10.842;2024-02-14T02:14:13;6.70;99.90
23291;DHT22;11814;44.686;10.842;2024-02-14T02:16:38;6.60;99.90
23291;DHT22;11814;44.686;10.842;2024-02-14T02:19:04;6.60;99.90
23291;DHT22;11814;44.686;10.842;2024-02-14T02:21:34;6.60;99.90
23291;DHT22;11814;44.686;10.842;2024-02-14T02:24:00;6.60;99.90
23291;DHT22;11814;44.686;10.842;2024-02-14T02:26:26;6.60;99.90
23291;DHT22;11814;44.686;10.842;2024-02-14T02:28:52;6.60;99.90
23291;DHT22;11814;44.686;10.842;2024-02-14T02:31:19;6.60;99.90
23291;DHT22;11814;44.686;10.842;2024-02-14T02:33:44;6.60;99.90
23291;DHT22;11814;44.686;10.842;2024-02-14T02:36:10;6.70;99.90
23291;DHT22;11814;44.686;10.842;2024-02-14T02:38:36;6.60;99.90
23291;DHT22;11814;44.686;10.842;2024-02-14T02:41:03;6.60;99.90
23291;DHT22;11814;44.686;10.842;2024-02-14T02:43:34;6.50;99.90
23291;DHT22;11814;44.686;10.842;2024-02-14T02:46:01;6.60;99.90
23291;DHT22;11814;44.686;10.842;2024-02-14T02:48:27;6.60;99.90
23291;DHT22;11814;44.686;10.842;2024-02-14T02:50:53;6.60;99.90
23291;DHT22;11814;44.686;10.842;2024-02-14T02:53:19;6.70;99.90
23291;DHT22;11814;44.686;10.842;2024-02-14T02:55:44;6.80;99.90
23291;DHT22;11814;44.686;10.842;2024-02-14T02:58:11;6.70;99.90
23291;DHT22;11814;44.686;10.842;2024-02-14T03:00:36;6.70;99.90
23291;DHT22;11814;44.686;10.842;2024-02-14T03:03:02;6.80;99.90
23291;DHT22;11814;44.686;10.842;2024-02-14T03:05:30;6.70;99.90
23291;DHT22;11814;44.686;10.842;2024-02-14T03:07:57;6.70;99.90
23291;DHT22;11814;44.686;10.842;2024-02-14T03:10:24;6.70;99.90
23291;DHT22;11814;44.686;10.842;2024-02-14T03:12:50;6.70;99.90
23291;DHT22;11814;44.686;10.842;2024-02-14T03:15:17;6.60;99.90
23291;DHT22;11814;44.686;10.842;2024-02-14T03:17:42;6.60;99.90
23291;DHT22;11814;44.686;10.842;2024-02-14T03:20:08;6.50;99.90
23291;DHT22;11814;44.686;10.842;2024-02-14T03:22:43;6.50;99.90
23291;DHT22;11814;44.686;10.842;2024-02-14T03:27:38;6.50;99.90
23291;DHT22;11814;44.686;10.842;2024-02-14T03:30:04;6.50;99.90
23291;DHT22;11814;44.686;10.842;2024-02-14T03:32:30;6.50;99.90
23291;DHT22;11814;44.686;10.842;2024-02-14T03:34:56;6.40;99.90
23291;DHT22;11814;44.686;10.842;2024-02-14T03:37:21;6.40;99.90
23291;DHT22;11814;44.686;10.842;2024-02-14T03:39:50;6.40;99.90
23291;DHT22;11814;44.686;10.842;2024-02-14T03:42:16;6.40;99.90
23291;DHT22;11814;44.686;10.842;2024-02-14T03:44:42;6.40;99.90
23291;DHT22;11814;44.686;10.842;2024-02-14T03:47:08;6.40;99.90
23291;DHT22;11814;44.686;10.842;2024-02-14T03:49:34;6.30;99.90
23291;DHT22;11814;44.686;10.842;2024-02-14T03:52:00;6.10;99.90
23291;DHT22;11814;44.686;10.842;2024-02-14T03:54:27;6.20;99.90
23291;DHT22;11814;44.686;10.842;2024-02-14T03:56:53;6.30;99.90
23291;DHT22;11814;44.686;10.842;2024-02-14T03:59:20;6.20;99.90
23291;DHT22;11814;44.686;10.842;2024-02-14T04:01:49;6.40;99.90
23291;DHT22;11814;44.686;10.842;2024-02-14T04:04:16;6.30;99.90
23291;DHT22;11814;44.686;10.842;2024-02-14T04:06:42;6.30;99.90
23291;DHT22;11814;44.686;10.842;2024-02-14T04:09:10;6.30;99.90
23291;DHT22;11814;44.686;10.842;2024-02-14T04:11:36;6.30;99.90
23291;DHT22;11814;44.686;10.842;2024-02-14T04:14:02;6.30;99.90
23291;DHT22;11814;44.686;10.842;2024-02-14T04:16:27;6.30;99.90
23291;DHT22;11814;44.686;10.842;2024-02-14T04:18:53;6.30;99.90
23291;DHT22;11814;44.686;10.842;2024-02-14T04:21:20;6.30;99.90
23291;DHT22;11814;44.686;10.842;2024-02-14T04:23:46;6.30;99.90
23291;DHT22;11814;44.686;10.842;2024-02-14T04:26:22;6.30;99.90
23291;DHT22;11814;44.686;10.842;2024-02-14T04:28:48;6.30;99.90
23291;DHT22;11814;44.686;10.842;2024-02-14T04:31:13;6.50;99.90
23291;DHT22;11814;44.686;10.842;2024-02-14T04:33:39;6.30;99.90
23291;DHT22;11814;44.686;10.842;2024-02-14T04:36:05;6.40;99.90
23291;DHT22;11814;44.686;10.842;2024-02-14T04:38:31;6.40;99.90
23291;DHT22;11814;44.686;10.842;2024-02-14T04:40:57;6.40;99.90
23291;DHT22;11814;44.686;10.842;2024-02-14T04:43:25;6.40;99.90
23291;DHT22;11814;44.686;10.842;2024-02-14T04:45:54;6.60;99.90
23291;DHT22;11814;44.686;10.842;2024-02-14T04:48:20;6.30;99.90
23291;DHT22;11814;44.686;10.842;2024-02-14T04:50:46;6.40;99.90
23291;DHT22;11814;44.686;10.842;2024-02-14T04:53:11;6.40;99.90
23291;DHT22;11814;44.686;10.842;2024-02-14T04:55:37;6.40;99.90
23291;DHT22;11814;44.686;10.842;2024-02-14T04:58:03;6.50;99.90
23291;DHT22;11814;44.686;10.842;2024-02-14T05:00:30;6.40;99.90
23291;DHT22;11814;44.686;10.842;2024-02-14T05:02:55;6.40;99.90
23291;DHT22;11814;44.686;10.842;2024-02-14T05:05:22;6.30;99.90
23291;DHT22;11814;44.686;10.842;2024-02-14T05:07:48;6.30;99.90
23291;DHT22;11814;44.686;10.842;2024-02-14T05:10:13;6.20;99.90
23291;DHT22;11814;44.686;10.842;2024-02-14T05:12:40;6.10;99.90
23291;DHT22;11814;44.686;10.842;2024-02-14T05:15:06;6.10;99.90
23291;DHT22;11814;44.686;10.842;2024-02-14T05:17:32;6.10;99.90
23291;DHT22;11814;44.686;10.842;2024-02-14T05:19:57;6.00;99.90
23291;DHT22;11814;44.686;10.842;2024-02-14T05:22:23;6.00;99.90
23291;DHT22;11814;44.686;10.842;2024-02-14T05:24:48;6.00;99.90
23291;DHT22;11814;44.686;10.842;2024-02-14T05:27:14;6.00;99.90
23291;DHT22;11814;44.686;10.842;2024-02-14T05:29:40;6.00;99.90
23291;DHT22;11814;44.686;10.842;2024-02-14T05:32:06;6.00;99.90
23291;DHT22;11814;44.686;10.842;2024-02-14T05:34:31;6.00;99.90
23291;DHT22;11814;44.686;10.842;2024-02-14T05:36:57;6.10;99.90
23291;DHT22;11814;44.686;10.842;2024-02-14T05:39:22;5.90;99.90
23291;DHT22;11814;44.686;10.842;2024-02-14T05:41:48;5.90;99.90
23291;DHT22;11814;44.686;10.842;2024-02-14T05:44:14;5.90;99.90
23291;DHT22;11814;44.686;10.842;2024-02-14T05:46:40;5.90;99.90
23291;DHT22;11814;44.686;10.842;2024-02-14T05:49:06;5.90;99.90
23291;DHT22;11814;44.686;10.842;2024-02-14T05:51:32;6.00;99.90
23291;DHT22;11814;44.686;10.842;2024-02-14T05:53:58;6.00;99.90
23291;DHT22;11814;44.686;10.842;2024-02-14T05:56:23;6.00;99.90
23291;DHT22;11814;44.686;10.842;2024-02-14T05:58:49;6.00;99.90
23291;DHT22;11814;44.686;10.842;2024-02-14T06:01:15;6.00;99.90
23291;DHT22;11814;44.686;10.842;2024-02-14T06:03:43;6.00;99.90
23291;DHT22;11814;44.686;10.842;2024-02-14T06:06:08;6.00;99.90
23291;DHT22;11814;44.686;10.842;2024-02-14T06:08:34;6.00;99.90
23291;DHT22;11814;44.686;10.842;2024-02-14T06:11:00;6.00;99.90
23291;DHT22;11814;44.686;10.842;2024-02-14T06:13:25;5.90;99.90
23291;DHT22;11814;44.686;10.842;2024-02-14T06:15:51;5.90;99.90
23291;DHT22;11814;44.686;10.842;2024-02-14T06:18:17;5.90;99.90
23291;DHT22;11814;44.686;10.842;2024-02-14T06:20:42;5.90;99.90
23291;DHT22;11814;44.686;10.842;2024-02-14T06:23:08;5.80;99.90
23291;DHT22;11814;44.686;10.842;2024-02-14T06:25:33;5.70;99.90
23291;DHT22;11814;44.686;10.842;2024-02-14T06:27:59;5.70;99.90
23291;DHT22;11814;44.686;10.842;2024-02-14T06:30:25;5.70;99.90
23291;DHT22;11814;44.686;10.842;2024-02-14T06:32:50;5.60;99.90
23291;DHT22;11814;44.686;10.842;2024-02-14T06:35:19;5.50;99.90
23291;DHT22;11814;44.686;10.842;2024-02-14T06:37:46;5.50;99.90
23291;DHT22;11814;44.686;10.842;2024-02-14T06:40:12;5.40;99.90
23291;DHT22;11814;44.686;10.842;2024-02-14T06:42:38;5.40;99.90
23291;DHT22;11814;44.686;10.842;2024-02-14T06:45:04;5.50;99.90
23291;DHT22;11814;44.686;10.842;2024-02-14T06:47:29;5.50;99.90
23291;DHT22;11814;44.686;10.842;2024-02-14T06:49:58;5.50;99.90
23291;DHT22;11814;44.686;10.842;2024-02-14T06:52:24;5.60;99.90
23291;DHT22;11814;44.686;10.842;2024-02-14T06:54:50;5.70;99.90
23291;DHT22;11814;44.686;10.842;2024-02-14T06:57:15;6.30;99.90
23291;DHT22;11814;44.686;10.842;2024-02-14T06:59:41;7.00;99.90
23291;DHT22;11814;44.686;10.842;2024-02-14T07:02:07;7.60;99.90
23291;DHT22;11814;44.686;10.842;2024-02-14T07:04:33;8.00;99.90
23291;DHT22;11814;44.686;10.842;2024-02-14T07:06:59;8.20;99.90
23291;DHT22;11814;44.686;10.842;2024-02-14T07:09:25;8.60;99.90
23291;DHT22;11814;44.686;10.842;2024-02-14T07:11:51;9.20;99.90
23291;DHT22;11814;44.686;10.842;2024-02-14T07:14:19;9.30;99.90
23291;DHT22;11814;44.686;10.842;2024-02-14T07:16:45;9.50;99.90
23291;DHT22;11814;44.686;10.842;2024-02-14T07:19:10;10.00;99.90
23291;DHT22;11814;44.686;10.842;2024-02-14T07:21:36;10.90;99.90
23291;DHT22;11814;44.686;10.842;2024-02-14T07:24:04;11.80;99.90
23291;DHT22;11814;44.686;10.842;2024-02-14T07:26:30;12.60;99.90
23291;DHT22;11814;44.686;10.842;2024-02-14T07:28:56;13.40;99.30
23291;DHT22;11814;44.686;10.842;2024-02-14T07:31:21;13.60;94.60
23291;DHT22;11814;44.686;10.842;2024-02-14T07:33:48;13.90;93.00
23291;DHT22;11814;44.686;10.842;2024-02-14T07:36:15;14.40;91.70
23291;DHT22;11814;44.686;10.842;2024-02-14T07:38:44;14.40;89.70
23291;DHT22;11814;44.686;10.842;2024-02-14T07:41:09;14.40;88.40
23291;DHT22;11814;44.686;10.842;2024-02-14T07:43:35;14.70;87.20
23291;DHT22;11814;44.686;10.842;2024-02-14T07:46:01;14.60;84.80
23291;DHT22;11814;44.686;10.842;2024-02-14T07:48:27;14.50;84.60
23291;DHT22;11814;44.686;10.842;2024-02-14T07:50:52;14.60;84.30
23291;DHT22;11814;44.686;10.842;2024-02-14T07:53:18;14.60;83.70
23291;DHT22;11814;44.686;10.842;2024-02-14T07:55:43;14.60;83.10
23291;DHT22;11814;44.686;10.842;2024-02-14T07:58:10;14.70;83.10
23291;DHT22;11814;44.686;10.842;2024-02-14T08:00:36;15.10;82.40
23291;DHT22;11814;44.686;10.842;2024-02-14T08:03:02;15.80;82.60
23291;DHT22;11814;44.686;10.842;2024-02-14T08:05:29;16.50;81.20
23291;DHT22;11814;44.686;10.842;2024-02-14T08:07:54;17.20;79.90
23291;DHT22;11814;44.686;10.842;2024-02-14T08:10:20;18.10;78.50
23291;DHT22;11814;44.686;10.842;2024-02-14T08:12:46;19.20;76.00
23291;DHT22;11814;44.686;10.842;2024-02-14T08:15:13;20.20;73.00
23291;DHT22;11814;44.686;10.842;2024-02-14T08:17:39;20.90;69.50
23291;DHT22;11814;44.686;10.842;2024-02-14T08:20:05;21.40;66.20
23291;DHT22;11814;44.686;10.842;2024-02-14T08:22:30;21.40;63.90
23291;DHT22;11814;44.686;10.842;2024-02-14T08:24:57;21.30;62.40
23291;DHT22;11814;44.686;10.842;2024-02-14T08:27:23;21.30;61.60
23291;DHT22;11814;44.686;10.842;2024-02-14T08:29:48;21.50;61.40
23291;DHT22;11814;44.686;10.842;2024-02-14T08:32:14;21.80;60.70
23291;DHT22;11814;44.686;10.842;2024-02-14T08:34:40;22.00;59.90
23291;DHT22;11814;44.686;10.842;2024-02-14T08:37:05;22.10;59.60
23291;DHT22;11814;44.686;10.842;2024-02-14T08:39:32;22.50;58.80
23291;DHT22;11814;44.686;10.842;2024-02-14T08:41:57;22.90;57.90
23291;DHT22;11814;44.686;10.842;2024-02-14T08:44:23;23.30;56.90
23291;DHT22;11814;44.686;10.842;2024-02-14T08:46:50;23.80;56.10
23291;DHT22;11814;44.686;10.842;2024-02-14T08:49:16;24.30;55.10
23291;DHT22;11814;44.686;10.842;2024-02-14T08:51:42;24.80;53.80
23291;DHT22;11814;44.686;10.842;2024-02-14T08:54:11;25.00;52.50
23291;DHT22;11814;44.686;10.842;2024-02-14T08:56:37;25.30;51.60
23291;DHT22;11814;44.686;10.842;2024-02-14T08:59:03;25.60;50.90
23291;DHT22;11814;44.686;10.842;2024-02-14T09:01:30;25.80;50.20
23291;DHT22;11814;44.686;10.842;2024-02-14T09:03:56;26.00;49.80
23291;DHT22;11814;44.686;10.842;2024-02-14T09:06:22;26.40;49.40
23291;DHT22;11814;44.686;10.842;2024-02-14T09:08:48;26.80;48.70
23291;DHT22;11814;44.686;10.842;2024-02-14T09:11:15;27.00;48.20
23291;DHT22;11814;44.686;10.842;2024-02-14T09:13:41;27.40;47.20
23291;DHT22;11814;44.686;10.842;2024-02-14T09:16:10;27.60;46.00
23291;DHT22;11814;44.686;10.842;2024-02-14T09:18:37;28.00;45.50
23291;DHT22;11814;44.686;10.842;2024-02-14T09:21:03;28.10;44.90
23291;DHT22;11814;44.686;10.842;2024-02-14T09:23:31;28.20;44.70
23291;DHT22;11814;44.686;10.842;2024-02-14T09:25:57;28.20;44.20
23291;DHT22;11814;44.686;10.842;2024-02-14T09:28:23;28.30;43.90
23291;DHT22;11814;44.686;10.842;2024-02-14T09:30:50;28.50;43.60
23291;DHT22;11814;44.686;10.842;2024-02-14T09:33:16;28.60;43.70
23291;DHT22;11814;44.686;10.842;2024-02-14T09:35:42;28.60;43.50
23291;DHT22;11814;44.686;10.842;2024-02-14T09:38:13;28.60;43.30
23291;DHT22;11814;44.686;10.842;2024-02-14T09:40:41;28.60;43.40
23291;DHT22;11814;44.686;10.842;2024-02-14T09:43:25;28.70;43.00
23291;DHT22;11814;44.686;10.842;2024-02-14T09:45:53;28.60;42.90
23291;DHT22;11814;44.686;10.842;2024-02-14T09:48:19;28.60;43.20
23291;DHT22;11814;44.686;10.842;2024-02-14T09:50:48;28.60;43.10
23291;DHT22;11814;44.686;10.842;2024-02-14T09:53:15;29.00;43.20
23291;DHT22;11814;44.686;10.842;2024-02-14T09:55:41;29.20;42.70
23291;DHT22;11814;44.686;10.842;2024-02-14T09:58:07;29.40;42.50
23291;DHT22;11814;44.686;10.842;2024-02-14T10:00:34;29.30;42.20
23291;DHT22;11814;44.686;10.842;2024-02-14T10:03:00;29.40;42.50
23291;DHT22;11814;44.686;10.842;2024-02-14T10:05:26;29.60;41.90
23291;DHT22;11814;44.686;10.842;2024-02-14T10:07:56;29.50;41.60
23291;DHT22;11814;44.686;10.842;2024-02-14T10:10:22;29.60;41.80
23291;DHT22;11814;44.686;10.842;2024-02-14T10:12:47;29.50;41.80
23291;DHT22;11814;44.686;10.842;2024-02-14T10:15:13;29.70;42.10
23291;DHT22;11814;44.686;10.842;2024-02-14T10:17:39;29.80;41.70
23291;DHT22;11814;44.686;10.842;2024-02-14T10:20:07;29.80;41.60
23291;DHT22;11814;44.686;10.842;2024-02-14T10:22:36;29.80;41.00
23291;DHT22;11814;44.686;10.842;2024-02-14T10:25:03;29.80;40.70
23291;DHT22;11814;44.686;10.842;2024-02-14T10:27:30;29.70;40.70
23291;DHT22;11814;44.686;10.842;2024-02-14T10:29:57;29.50;40.90
23291;DHT22;11814;44.686;10.842;2024-02-14T10:32:23;29.20;41.30
23291;DHT22;11814;44.686;10.842;2024-02-14T10:34:49;29.10;41.60
23291;DHT22;11814;44.686;10.842;2024-02-14T10:37:15;29.00;41.40
23291;DHT22;11814;44.686;10.842;2024-02-14T10:39:46;29.00;41.70
23291;DHT22;11814;44.686;10.842;2024-02-14T10:42:15;29.00;41.80
23291;DHT22;11814;44.686;10.842;2024-02-14T10:44:41;29.20;41.80
23291;DHT22;11814;44.686;10.842;2024-02-14T10:47:11;29.30;41.70
23291;DHT22;11814;44.686;10.842;2024-02-14T10:49:40;29.30;41.50
23291;DHT22;11814;44.686;10.842;2024-02-14T10:52:09;29.50;41.30
23291;DHT22;11814;44.686;10.842;2024-02-14T10:54:35;29.50;41.30
23291;DHT22;11814;44.686;10.842;2024-02-14T10:57:05;29.50;41.30
23291;DHT22;11814;44.686;10.842;2024-02-14T10:59:34;29.70;41.40
23291;DHT22;11814;44.686;10.842;2024-02-14T11:02:01;29.70;41.10
23291;DHT22;11814;44.686;10.842;2024-02-14T11:04:27;29.70;41.00
23291;DHT22;11814;44.686;10.842;2024-02-14T11:06:54;29.70;40.70
23291;DHT22;11814;44.686;10.842;2024-02-14T11:09:22;29.70;40.70
23291;DHT22;11814;44.686;10.842;2024-02-14T11:12:00;29.60;41.20
23291;DHT22;11814;44.686;10.842;2024-02-14T11:14:31;29.60;40.70
23291;DHT22;11814;44.686;10.842;2024-02-14T11:16:59;29.60;41.00
23291;DHT22;11814;44.686;10.842;2024-02-14T11:19:31;29.60;41.00
23291;DHT22;11814;44.686;10.842;2024-02-14T11:22:17;29.60;40.90
23291;DHT22;11814;44.686;10.842;2024-02-14T11:24:48;29.50;41.20
23291;DHT22;11814;44.686;10.842;2024-02-14T11:27:17;29.50;41.30
23291;DHT22;11814;44.686;10.842;2024-02-14T11:29:53;29.60;41.20
23291;DHT22;11814;44.686;10.842;2024-02-14T11:32:19;29.50;41.30
23291;DHT22;11814;44.686;10.842;2024-02-14T11:34:54;29.30;41.30
23291;DHT22;11814;44.686;10.842;2024-02-14T11:37:30;29.30;41.30
23291;DHT22;11814;44.686;10.842;2024-02-14T11:39:57;29.20;41.20
23291;DHT22;11814;44.686;10.842;2024-02-14T11:42:24;29.10;41.40
23291;DHT22;11814;44.686;10.842;2024-02-14T11:44:50;28.90;41.70
23291;DHT22;11814;44.686;10.842;2024-02-14T11:47:16;28.80;41.80
23291;DHT22;11814;44.686;10.842;2024-02-14T11:49:41;28.70;41.90
23291;DHT22;11814;44.686;10.842;2024-02-14T11:52:11;28.50;42.20
23291;DHT22;11814;44.686;10.842;2024-02-14T11:54:38;28.50;42.00
23291;DHT22;11814;44.686;10.842;2024-02-14T11:57:03;28.10;42.30
23291;DHT22;11814;44.686;10.842;2024-02-14T11:59:29;27.70;42.90
23291;DHT22;11814;44.686;10.842;2024-02-14T12:01:55;27.30;43.60
23291;DHT22;11814;44.686;10.842;2024-02-14T12:04:23;27.00;44.20
23291;DHT22;11814;44.686;10.842;2024-02-14T12:06:49;26.70;44.70
23291;DHT22;11814;44.686;10.842;2024-02-14T12:09:15;26.50;45.00
23291;DHT22;11814;44.686;10.842;2024-02-14T12:11:41;26.30;45.70
23291;DHT22;11814;44.686;10.842;2024-02-14T12:14:11;26.00;45.70
23291;DHT22;11814;44.686;10.842;2024-02-14T12:16:37;25.80;45.80
23291;DHT22;11814;44.686;10.842;2024-02-14T12:19:23;25.40;46.30
23291;DHT22;11814;44.686;10.842;2024-02-14T12:21:49;25.10;47.10
23291;DHT22;11814;44.686;10.842;2024-02-14T12:24:14;24.90;47.60
23291;DHT22;11814;44.686;10.842;2024-02-14T12:26:41;24.70;48.10
23291;DHT22;11814;44.686;10.842;2024-02-14T12:29:07;24.60;48.50
23291;DHT22;11814;44.686;10.842;2024-02-14T12:31:34;24.50;48.50
23291;DHT22;11814;44.686;10.842;2024-02-14T12:34:01;24.30;48.70
23291;DHT22;11814;44.686;10.842;2024-02-14T12:36:34;24.10;49.00
23291;DHT22;11814;44.686;10.842;2024-02-14T12:39:00;23.90;49.80
23291;DHT22;11814;44.686;10.842;2024-02-14T12:41:30;23.70;50.40
23291;DHT22;11814;44.686;10.842;2024-02-14T12:43:56;23.60;50.70
23291;DHT22;11814;44.686;10.842;2024-02-14T12:46:22;23.40;50.70
23291;DHT22;11814;44.686;10.842;2024-02-14T12:48:48;23.30;51.10
23291;DHT22;11814;44.686;10.842;2024-02-14T12:51:14;23.20;51.30
23291;DHT22;11814;44.686;10.842;2024-02-14T12:53:40;23.30;51.60
23291;DHT22;11814;44.686;10.842;2024-02-14T12:56:06;23.30;51.30
23291;DHT22;11814;44.686;10.842;2024-02-14T12:58:32;23.20;51.00
23291;DHT22;11814;44.686;10.842;2024-02-14T13:00:58;23.00;51.20
23291;DHT22;11814;44.686;10.842;2024-02-14T13:03:24;22.90;51.40
23291;DHT22;11814;44.686;10.842;2024-02-14T13:05:50;22.90;51.90
23291;DHT22;11814;44.686;10.842;2024-02-14T13:08:19;22.90;52.30
23291;DHT22;11814;44.686;10.842;2024-02-14T13:10:48;22.80;52.50
23291;DHT22;11814;44.686;10.842;2024-02-14T13:13:14;22.90;52.80
23291;DHT22;11814;44.686;10.842;2024-02-14T13:15:40;22.80;52.70
23291;DHT22;11814;44.686;10.842;2024-02-14T13:18:08;22.70;52.70
23291;DHT22;11814;44.686;10.842;2024-02-14T13:20:36;22.50;52.50
23291;DHT22;11814;44.686;10.842;2024-02-14T13:23:06;22.50;52.60
23291;DHT22;11814;44.686;10.842;2024-02-14T13:25:35;22.40;52.30
23291;DHT22;11814;44.686;10.842;2024-02-14T13:28:04;22.30;52.80
23291;DHT22;11814;44.686;10.842;2024-02-14T13:30:31;22.20;53.20
23291;DHT22;11814;44.686;10.842;2024-02-14T13:32:57;22.20;53.60
23291;DHT22;11814;44.686;10.842;2024-02-14T13:35:22;22.10;53.40
23291;DHT22;11814;44.686;10.842;2024-02-14T13:37:49;22.00;53.50
23291;DHT22;11814;44.686;10.842;2024-02-14T13:40:14;21.90;53.50
23291;DHT22;11814;44.686;10.842;2024-02-14T13:42:40;21.80;53.30
23291;DHT22;11814;44.686;10.842;2024-02-14T13:45:07;21.90;53.30
23291;DHT22;11814;44.686;10.842;2024-02-14T13:47:39;21.80;53.50
23291;DHT22;11814;44.686;10.842;2024-02-14T13:50:07;21.70;53.80
23291;DHT22;11814;44.686;10.842;2024-02-14T13:52:33;21.60;53.80
23291;DHT22;11814;44.686;10.842;2024-02-14T13:54:59;21.50;54.10
23291;DHT22;11814;44.686;10.842;2024-02-14T13:57:25;21.40;54.40
23291;DHT22;11814;44.686;10.842;2024-02-14T13:59:50;21.30;54.40
23291;DHT22;11814;44.686;10.842;2024-02-14T14:02:16;21.20;54.50
23291;DHT22;11814;44.686;10.842;2024-02-14T14:04:41;21.10;54.60
23291;DHT22;11814;44.686;10.842;2024-02-14T14:07:07;21.20;54.90
23291;DHT22;11814;44.686;10.842;2024-02-14T14:09:33;21.10;55.10
23291;DHT22;11814;44.686;10.842;2024-02-14T14:11:59;21.10;54.90
23291;DHT22;11814;44.686;10.842;2024-02-14T14:14:24;21.00;54.80
23291;DHT22;11814;44.686;10.842;2024-02-14T14:16:52;20.90;55.30
23291;DHT22;11814;44.686;10.842;2024-02-14T14:19:18;21.00;55.60
23291;DHT22;11814;44.686;10.842;2024-02-14T14:21:44;20.80;55.40
23291;DHT22;11814;44.686;10.842;2024-02-14T14:24:13;20.80;55.90
23291;DHT22;11814;44.686;10.842;2024-02-14T14:26:38;20.70;56.10
23291;DHT22;11814;44.686;10.842;2024-02-14T14:29:04;20.70;55.90
23291;DHT22;11814;44.686;10.842;2024-02-14T14:31:30;20.50;55.70
23291;DHT22;11814;44.686;10.842;2024-02-14T14:33:59;20.40;56.10
23291;DHT22;11814;44.686;10.842;2024-02-14T14:36:27;20.40;56.40
23291;DHT22;11814;44.686;10.842;2024-02-14T14:38:54;20.30;55.90
23291;DHT22;11814;44.686;10.842;2024-02-14T14:41:22;20.20;55.90
23291;DHT22;11814;44.686;10.842;2024-02-14T14:43:48;20.00;55.90
23291;DHT22;11814;44.686;10.842;2024-02-14T14:46:15;20.00;56.10
23291;DHT22;11814;44.686;10.842;2024-02-14T14:48:41;20.00;56.10
23291;DHT22;11814;44.686;10.842;2024-02-14T14:51:06;19.90;55.80
23291;DHT22;11814;44.686;10.842;2024-02-14T14:53:33;19.90;56.20
23291;DHT22;11814;44.686;10.842;2024-02-14T14:56:00;19.90;56.40
23291;DHT22;11814;44.686;10.842;2024-02-14T14:58:26;19.80;56.60
23291;DHT22;11814;44.686;10.842;2024-02-14T15:00:53;19.80;56.80
23291;DHT22;11814;44.686;10.842;2024-02-14T15:03:21;19.70;56.90
23291;DHT22;11814;44.686;10.842;2024-02-14T15:05:46;19.70;56.90
23291;DHT22;11814;44.686;10.842;2024-02-14T15:08:13;19.60;57.00
23291;DHT22;11814;44.686;10.842;2024-02-14T15:10:39;19.50;57.10
23291;DHT22;11814;44.686;10.842;2024-02-14T15:13:06;19.50;57.30
23291;DHT22;11814;44.686;10.842;2024-02-14T15:15:34;19.40;57.10
23291;DHT22;11814;44.686;10.842;2024-02-14T15:18:00;19.40;57.10
23291;DHT22;11814;44.686;10.842;2024-02-14T15:20:25;19.20;57.10